KERV

Kerrville Municipal/Louis Schreiner Field Airport

Kerrville, Texas, USA

KERV 110855Z AUTO 32003KT 10SM CLR 00/M02 A3037 RMK AO2 T10051021

Observed Flight Rules
Dec-11 @ 08:55 UTC (34 minutes ago) Visual Flight Rules
Wind Visibility Clouds
320° at 3 knots 10 miles
  • Clear skies
Temperatures Readings
Current -1°C / 30°F
Dewpoint -2°C / 28°F
Humidity 93%
Altimeter 30.37" Hg
Pressure 1028 hPa
Elevation 510
Observed Flight Rules
Dec-11 @ 08:55 UTC
(34 minutes ago)
VFR
Wind Visibility
320° at 3 knots 10 miles
Clouds
  • Clear skies
Temperature Dewpoint
-1°C / 30°F -2°C / 28°F
Humidity Altimeter Pressure
93% 30.37" Hg 1028 hPa